Time;durP1;ratioP1;P1;durP2;ratioP2;P2;SDS_P1;SDS_P2;PMS_P1;PMS_P2;Temp;Humidity;BMP_temperature;BMP_pressure;BME280_temperature;BME280_humidity;BME280_pressure;Samples;Min_cycle;Max_cycle;Signal;HPM_P1;HPM_P2
2023/09/27 00:00:10;;;;;;;16.98;6.65;;;13.90;99.90;;;;;;5077685;28;20089;-63
2023/09/27 00:02:37;;;;;;;8.15;5.18;;;13.90;99.90;;;;;;5061112;28;20024;-64
2023/09/27 00:05:06;;;;;;;6.20;4.30;;;13.80;99.90;;;;;;5063765;28;20032;-64
2023/09/27 00:07:36;;;;;;;8.43;6.20;;;13.80;99.90;;;;;;5070488;28;20037;-65
2023/09/27 00:10:05;;;;;;;6.53;5.30;;;13.70;99.90;;;;;;5077991;28;20032;-65
2023/09/27 00:12:32;;;;;;;10.07;5.10;;;13.70;99.90;;;;;;5077243;28;20040;-65
2023/09/27 00:15:00;;;;;;;7.40;5.07;;;13.80;99.90;;;;;;5068545;28;20093;-65
2023/09/27 00:17:26;;;;;;;5.68;4.90;;;13.80;99.90;;;;;;5074269;28;20090;-63
2023/09/27 00:19:51;;;;;;;9.18;5.25;;;13.70;99.90;;;;;;5056390;28;20029;-66
2023/09/27 00:22:17;;;;;;;6.90;5.63;;;13.70;99.90;;;;;;5075451;28;20520;-65
2023/09/27 00:24:42;;;;;;;5.10;4.40;;;13.70;99.90;;;;;;5076607;28;20135;-64
2023/09/27 00:27:10;;;;;;;8.40;5.70;;;13.60;99.90;;;;;;5077360;28;20059;-65
2023/09/27 00:29:36;;;;;;;10.55;5.28;;;13.50;99.90;;;;;;5081362;28;20031;-64
2023/09/27 00:32:02;;;;;;;11.13;6.05;;;13.40;99.90;;;;;;5080851;28;20036;-66
2023/09/27 00:34:27;;;;;;;8.20;5.53;;;13.40;99.90;;;;;;5062989;28;20033;-65
2023/09/27 00:36:53;;;;;;;8.52;5.65;;;13.40;99.90;;;;;;5076987;28;20068;-65
2023/09/27 00:39:19;;;;;;;7.47;5.32;;;13.30;99.90;;;;;;5071446;28;20037;-63
2023/09/27 00:41:44;;;;;;;7.90;5.95;;;13.20;99.90;;;;;;5079009;28;21750;-66
2023/09/27 00:44:10;;;;;;;10.93;5.95;;;13.30;99.90;;;;;;5081278;28;20028;-65
2023/09/27 00:46:36;;;;;;;8.65;5.63;;;13.30;99.90;;;;;;5077309;28;20115;-65
2023/09/27 00:49:02;;;;;;;9.20;6.43;;;13.30;99.90;;;;;;5076297;28;20602;-63
2023/09/27 00:51:29;;;;;;;7.47;5.90;;;13.30;99.90;;;;;;5080764;28;20039;-64
2023/09/27 00:53:56;;;;;;;12.90;5.95;;;13.40;99.90;;;;;;5080360;28;20033;-66
2023/09/27 00:56:22;;;;;;;9.05;6.13;;;13.40;99.90;;;;;;5071307;28;20055;-64
2023/09/27 00:58:48;;;;;;;8.15;5.53;;;13.40;99.90;;;;;;5077714;28;20089;-66
2023/09/27 01:01:15;;;;;;;8.70;6.32;;;13.40;99.90;;;;;;5071502;28;20036;-64
2023/09/27 01:03:41;;;;;;;8.98;5.93;;;13.40;99.90;;;;;;5077642;28;20027;-63
2023/09/27 01:06:07;;;;;;;6.53;5.03;;;13.40;99.90;;;;;;5079129;28;20717;-63
2023/09/27 01:08:33;;;;;;;7.65;5.68;;;13.30;99.90;;;;;;5075964;27;20051;-64
2023/09/27 01:10:59;;;;;;;7.30;5.18;;;13.30;99.90;;;;;;5059394;28;20029;-65
2023/09/27 01:13:25;;;;;;;12.38;6.38;;;13.20;99.90;;;;;;5069280;28;20020;-64
2023/09/27 01:15:51;;;;;;;7.07;5.40;;;13.10;99.90;;;;;;5078388;28;20413;-65
2023/09/27 01:18:16;;;;;;;9.63;5.68;;;13.00;99.90;;;;;;5078009;28;20028;-65
2023/09/27 01:20:42;;;;;;;9.30;6.30;;;13.00;99.90;;;;;;5075465;28;20024;-66
2023/09/27 01:23:07;;;;;;;8.70;6.47;;;12.90;99.90;;;;;;5079368;28;20024;-63
2023/09/27 01:25:35;;;;;;;8.07;6.07;;;12.90;99.90;;;;;;5057666;28;20589;-65
2023/09/27 01:28:03;;;;;;;9.05;6.18;;;12.90;99.90;;;;;;5079434;28;20024;-64
2023/09/27 01:30:32;;;;;;;9.57;6.47;;;12.90;99.90;;;;;;5079235;28;20570;-65
2023/09/27 01:33:06;;;;;;;8.80;6.82;;;12.90;99.90;;;;;;5052888;28;20520;-64
2023/09/27 01:35:36;;;;;;;9.43;7.00;;;12.90;99.90;;;;;;5072288;28;20501;-64
2023/09/27 01:38:03;;;;;;;8.48;6.22;;;13.00;99.90;;;;;;5074333;28;20067;-64
2023/09/27 01:40:32;;;;;;;8.00;6.13;;;13.00;99.90;;;;;;5070849;28;20119;-64
2023/09/27 01:42:58;;;;;;;8.07;6.00;;;13.00;99.90;;;;;;5065566;28;20024;-65
2023/09/27 01:45:25;;;;;;;9.52;6.03;;;13.10;99.90;;;;;;5070925;28;20523;-65
2023/09/27 01:47:50;;;;;;;7.82;5.97;;;13.10;99.90;;;;;;5073782;28;20035;-64
2023/09/27 01:50:19;;;;;;;11.45;5.53;;;13.10;99.90;;;;;;5070531;28;20020;-64
2023/09/27 01:52:46;;;;;;;8.65;5.78;;;13.00;99.90;;;;;;5067090;28;20443;-63
2023/09/27 01:55:12;;;;;;;7.57;6.07;;;12.80;99.90;;;;;;5078479;28;20046;-65
2023/09/27 01:57:38;;;;;;;8.45;6.05;;;12.70;99.90;;;;;;5071355;28;20024;-65
2023/09/27 02:00:10;;;;;;;8.68;5.65;;;12.60;99.90;;;;;;5074924;28;20028;-64
2023/09/27 02:02:35;;;;;;;12.45;6.57;;;12.50;99.90;;;;;;5067879;28;20568;-64
2023/09/27 02:05:02;;;;;;;12.25;7.55;;;12.50;99.90;;;;;;5081155;28;20151;-64
2023/09/27 02:07:27;;;;;;;12.73;7.32;;;12.50;99.90;;;;;;5048450;28;20044;-65
2023/09/27 02:09:53;;;;;;;11.63;6.72;;;12.70;99.90;;;;;;5073651;28;20023;-65
2023/09/27 02:12:18;;;;;;;10.13;7.10;;;12.70;99.90;;;;;;5078497;28;20028;-64
2023/09/27 02:14:44;;;;;;;10.75;6.68;;;12.70;99.90;;;;;;5060821;28;20119;-65
2023/09/27 02:17:10;;;;;;;13.25;8.05;;;12.70;99.90;;;;;;5076750;28;20042;-64
2023/09/27 02:19:36;;;;;;;11.52;7.07;;;12.60;99.90;;;;;;5056345;28;20056;-65
2023/09/27 02:22:01;;;;;;;13.00;7.70;;;12.50;99.90;;;;;;5074580;28;20513;-63
2023/09/27 02:24:28;;;;;;;9.35;7.72;;;12.40;99.90;;;;;;5077034;28;20484;-64
2023/09/27 02:26:54;;;;;;;13.23;8.82;;;12.40;99.90;;;;;;5079883;28;20155;-64
2023/09/27 02:29:20;;;;;;;11.70;8.27;;;12.50;99.90;;;;;;5074963;28;20110;-64
2023/09/27 02:31:45;;;;;;;11.65;8.15;;;12.50;99.90;;;;;;5074284;28;20024;-65
2023/09/27 02:34:14;;;;;;;17.30;8.30;;;12.60;99.90;;;;;;5074840;28;20028;-65
2023/09/27 02:36:41;;;;;;;12.05;7.70;;;12.60;99.90;;;;;;5075036;28;20028;-65
2023/09/27 02:39:07;;;;;;;10.48;8.32;;;12.60;99.90;;;;;;5077132;28;20496;-65
2023/09/27 02:41:33;;;;;;;13.57;8.23;;;12.60;99.90;;;;;;5076903;28;20017;-60
2023/09/27 02:43:59;;;;;;;12.65;8.30;;;12.50;99.90;;;;;;5059302;28;20073;-66
2023/09/27 02:46:25;;;;;;;12.98;7.35;;;12.50;99.90;;;;;;5077190;28;20036;-65
2023/09/27 02:48:50;;;;;;;11.45;7.85;;;12.40;99.90;;;;;;5073943;28;20486;-64
2023/09/27 02:51:16;;;;;;;12.93;8.93;;;12.40;99.90;;;;;;5058414;28;20028;-66
2023/09/27 02:53:42;;;;;;;15.93;8.02;;;12.40;99.90;;;;;;5076776;28;20036;-64
2023/09/27 02:56:08;;;;;;;10.38;7.68;;;12.40;99.90;;;;;;5076316;28;20036;-67
2023/09/27 02:58:34;;;;;;;15.57;7.82;;;12.40;99.90;;;;;;5075435;28;20502;-65
2023/09/27 03:01:00;;;;;;;11.80;8.05;;;12.30;99.90;;;;;;5075588;28;20037;-66
2023/09/27 03:03:27;;;;;;;11.20;7.53;;;12.30;99.90;;;;;;5076820;28;20039;-65
2023/09/27 03:05:53;;;;;;;10.55;7.50;;;12.40;99.90;;;;;;5074884;28;20033;-64
2023/09/27 03:08:18;;;;;;;9.98;7.03;;;12.40;99.90;;;;;;5077854;28;20098;-65
2023/09/27 03:10:44;;;;;;;10.85;7.47;;;12.40;99.90;;;;;;5074685;28;20530;-64
2023/09/27 03:13:10;;;;;;;11.43;7.68;;;12.30;99.90;;;;;;5077879;28;20060;-65
2023/09/27 03:15:36;;;;;;;10.45;6.70;;;12.30;99.90;;;;;;5076791;28;20154;-63
2023/09/27 03:18:03;;;;;;;10.75;6.93;;;12.20;99.90;;;;;;5074256;28;20127;-64
2023/09/27 03:20:30;;;;;;;11.07;8.00;;;12.20;99.90;;;;;;5074312;28;20602;-65
2023/09/27 03:22:56;;;;;;;10.18;6.95;;;12.10;99.90;;;;;;5076283;28;20085;-65
2023/09/27 03:25:21;;;;;;;11.98;8.32;;;12.10;99.90;;;;;;5076365;28;20020;-65
2023/09/27 03:27:48;;;;;;;11.13;7.78;;;12.00;99.90;;;;;;5076621;28;20028;-66
2023/09/27 03:30:14;;;;;;;14.15;7.50;;;12.00;99.90;;;;;;5074727;28;20032;-64
2023/09/27 03:32:40;;;;;;;10.77;6.90;;;12.00;99.90;;;;;;5076347;28;20024;-64
2023/09/27 03:35:07;;;;;;;10.38;7.18;;;11.90;99.90;;;;;;5077052;28;20124;-65
2023/09/27 03:37:34;;;;;;;10.80;7.88;;;11.90;99.90;;;;;;5076515;28;20028;-62
2023/09/27 03:40:01;;;;;;;12.52;7.93;;;11.90;99.90;;;;;;5075160;28;20050;-66
2023/09/27 03:42:26;;;;;;;11.73;6.82;;;11.90;99.90;;;;;;5076283;28;20437;-65
2023/09/27 03:44:54;;;;;;;9.90;7.78;;;12.00;99.90;;;;;;5074825;28;20056;-64
2023/09/27 03:47:20;;;;;;;13.05;8.60;;;11.90;99.90;;;;;;5075734;28;20107;-64
2023/09/27 03:49:45;;;;;;;12.50;8.68;;;11.90;99.90;;;;;;5074049;28;20032;-64
2023/09/27 03:52:11;;;;;;;15.90;7.78;;;11.90;99.90;;;;;;5075464;28;20043;-65
2023/09/27 03:54:37;;;;;;;14.88;7.97;;;11.90;99.90;;;;;;5077075;28;20077;-66
2023/09/27 03:57:03;;;;;;;13.88;7.55;;;11.90;99.90;;;;;;5074229;28;20547;-63
2023/09/27 03:59:29;;;;;;;10.82;6.68;;;11.90;99.90;;;;;;5076238;28;20110;-65
2023/09/27 04:01:55;;;;;;;11.60;8.23;;;11.90;99.90;;;;;;5073699;28;20412;-64
2023/09/27 04:04:21;;;;;;;10.38;7.70;;;11.90;99.90;;;;;;5073850;28;20029;-65
2023/09/27 04:06:48;;;;;;;12.07;8.38;;;11.90;99.90;;;;;;5074870;27;20573;-65
2023/09/27 04:09:13;;;;;;;12.50;8.43;;;11.90;99.90;;;;;;5058942;28;20025;-65
2023/09/27 04:11:39;;;;;;;13.32;8.90;;;11.80;99.90;;;;;;5057920;28;20111;-65
2023/09/27 04:14:05;;;;;;;12.13;8.10;;;11.80;99.90;;;;;;5075839;28;20032;-64
2023/09/27 04:16:31;;;;;;;12.63;8.07;;;11.70;99.90;;;;;;5074927;28;20428;-62
2023/09/27 04:18:58;;;;;;;12.68;8.98;;;11.70;99.90;;;;;;5072451;28;20405;-65
2023/09/27 04:21:25;;;;;;;17.23;9.13;;;11.70;99.90;;;;;;5074469;28;20067;-63
2023/09/27 04:23:59;;;;;;;11.75;7.82;;;11.70;99.90;;;;;;5057813;28;20367;-63
2023/09/27 04:26:24;;;;;;;15.05;9.10;;;11.70;99.90;;;;;;5074033;28;20452;-65
2023/09/27 04:28:52;;;;;;;14.43;9.90;;;11.70;99.90;;;;;;5074236;28;20020;-65
2023/09/27 04:31:18;;;;;;;14.45;9.73;;;11.70;99.90;;;;;;5057931;28;20024;-65
2023/09/27 04:33:44;;;;;;;13.27;8.95;;;11.80;99.90;;;;;;5075439;28;20039;-65
2023/09/27 04:36:16;;;;;;;15.85;8.65;;;11.70;99.90;;;;;;5072600;28;20031;-64
2023/09/27 04:38:45;;;;;;;11.50;8.50;;;11.70;99.90;;;;;;5075879;28;20032;-64
2023/09/27 04:41:14;;;;;;;15.85;8.02;;;11.80;99.90;;;;;;5056061;28;20035;-64
2023/09/27 04:43:40;;;;;;;14.73;8.48;;;11.70;99.90;;;;;;5075530;28;20386;-64
2023/09/27 04:46:05;;;;;;;11.52;8.18;;;11.70;99.90;;;;;;5075631;28;20119;-65
2023/09/27 04:48:32;;;;;;;15.07;8.90;;;11.60;99.90;;;;;;5074571;28;20537;-66
2023/09/27 04:50:59;;;;;;;17.30;8.68;;;11.60;99.90;;;;;;5072520;28;20047;-63
2023/09/27 04:53:25;;;;;;;16.38;9.32;;;11.60;99.90;;;;;;5075090;28;20036;-66
2023/09/27 04:55:51;;;;;;;14.90;9.75;;;11.60;99.90;;;;;;5075983;28;20031;-63
2023/09/27 04:58:17;;;;;;;14.15;9.73;;;11.60;99.90;;;;;;5072681;28;20020;-64
2023/09/27 05:00:43;;;;;;;16.50;10.18;;;11.50;99.90;;;;;;5074932;28;20401;-64
2023/09/27 05:03:08;;;;;;;14.48;9.85;;;11.50;99.90;;;;;;5072287;28;20060;-65
2023/09/27 05:05:34;;;;;;;15.75;9.82;;;11.60;99.90;;;;;;5075685;28;20791;-61
2023/09/27 05:07:59;;;;;;;14.43;9.48;;;11.60;99.90;;;;;;5074522;28;20060;-63
2023/09/27 05:10:25;;;;;;;15.88;9.20;;;11.60;99.90;;;;;;5075887;28;20087;-66
2023/09/27 05:12:51;;;;;;;18.15;9.48;;;11.60;99.90;;;;;;5074458;28;20451;-65
2023/09/27 05:15:17;;;;;;;15.93;9.75;;;11.50;99.90;;;;;;5074118;28;20119;-65
2023/09/27 05:17:42;;;;;;;17.80;10.10;;;11.50;99.90;;;;;;5078165;28;20060;-65
2023/09/27 05:20:11;;;;;;;17.27;10.95;;;11.50;99.90;;;;;;5079968;28;20106;-64
2023/09/27 05:22:37;;;;;;;16.95;10.88;;;11.40;99.90;;;;;;5077642;28;20032;-63
2023/09/27 05:25:06;;;;;;;22.05;10.57;;;11.40;99.90;;;;;;5077424;28;20544;-66
2023/09/27 05:27:31;;;;;;;15.57;9.43;;;11.40;99.90;;;;;;5079444;28;20024;-65
2023/09/27 05:29:57;;;;;;;14.32;10.18;;;11.40;99.90;;;;;;5075187;28;20038;-66
2023/09/27 05:32:23;;;;;;;15.00;9.55;;;11.40;99.90;;;;;;5077023;28;20039;-65
2023/09/27 05:34:50;;;;;;;13.68;8.32;;;11.40;99.90;;;;;;5078559;28;20028;-63
2023/09/27 05:37:16;;;;;;;14.85;9.40;;;11.40;99.90;;;;;;5076527;28;20028;-63
2023/09/27 05:39:42;;;;;;;18.67;8.55;;;11.40;99.90;;;;;;5074671;28;20042;-66
2023/09/27 05:42:07;;;;;;;12.18;8.18;;;11.40;99.90;;;;;;5060133;28;20032;-66
2023/09/27 05:44:33;;;;;;;13.18;8.57;;;11.40;99.90;;;;;;5078897;28;20011;-65
2023/09/27 05:46:59;;;;;;;10.23;7.43;;;11.50;99.90;;;;;;5078129;28;20056;-64
2023/09/27 05:49:25;;;;;;;10.77;7.20;;;11.50;99.90;;;;;;5078940;28;20444;-65
2023/09/27 05:51:52;;;;;;;10.93;8.07;;;11.50;99.90;;;;;;5073957;28;20069;-64
2023/09/27 05:54:19;;;;;;;14.30;7.47;;;11.60;99.90;;;;;;5059590;28;20157;-65
2023/09/27 05:56:50;;;;;;;10.10;7.97;;;11.70;99.90;;;;;;5074702;28;20020;-63
2023/09/27 05:59:16;;;;;;;16.00;8.20;;;11.80;99.90;;;;;;5076242;28;20656;-63
2023/09/27 06:01:41;;;;;;;13.38;7.28;;;11.80;99.90;;;;;;5077565;28;20034;-64
2023/09/27 06:04:07;;;;;;;12.07;7.55;;;11.90;99.90;;;;;;5076944;28;20055;-64
2023/09/27 06:06:33;;;;;;;14.95;8.27;;;11.90;99.90;;;;;;5075912;28;20505;-67
2023/09/27 06:08:59;;;;;;;9.20;6.95;;;12.00;99.90;;;;;;5079945;27;20200;-65
2023/09/27 06:11:25;;;;;;;12.15;7.35;;;12.10;99.90;;;;;;5077469;28;20530;-64
2023/09/27 06:13:50;;;;;;;10.07;6.38;;;12.20;99.90;;;;;;5075501;28;20031;-65
2023/09/27 06:16:19;;;;;;;10.20;6.97;;;12.20;99.90;;;;;;5076270;28;20028;-64
2023/09/27 06:18:45;;;;;;;8.18;5.97;;;12.30;99.90;;;;;;5077669;28;20028;-64
2023/09/27 06:21:11;;;;;;;7.72;5.93;;;12.40;99.90;;;;;;5074218;28;20489;-65
2023/09/27 06:23:37;;;;;;;7.75;5.70;;;12.40;99.90;;;;;;5078704;28;20386;-59
2023/09/27 06:26:02;;;;;;;8.82;6.18;;;12.60;99.90;;;;;;5076016;28;20036;-66
2023/09/27 06:28:28;;;;;;;7.75;6.10;;;12.80;99.90;;;;;;5077147;28;20063;-65
2023/09/27 06:30:54;;;;;;;8.00;5.70;;;12.90;99.90;;;;;;5077073;28;20036;-65
2023/09/27 06:33:19;;;;;;;14.85;6.40;;;13.10;99.90;;;;;;5076927;28;20133;-66
2023/09/27 06:35:45;;;;;;;8.27;6.05;;;13.30;99.90;;;;;;5076759;28;20108;-64
2023/09/27 06:38:11;;;;;;;9.60;5.55;;;13.50;99.90;;;;;;5076534;28;20028;-64
2023/09/27 06:40:36;;;;;;;11.50;5.60;;;13.70;99.90;;;;;;5078224;28;20028;-65
2023/09/27 06:43:04;;;;;;;9.25;5.18;;;13.90;99.90;;;;;;5077473;28;20021;-64
2023/09/27 06:45:30;;;;;;;9.13;5.65;;;14.20;99.90;;;;;;5078233;28;20054;-65
2023/09/27 06:47:56;;;;;;;6.95;4.45;;;14.50;99.90;;;;;;5076558;28;20036;-65
2023/09/27 06:50:22;;;;;;;8.43;4.55;;;14.80;99.90;;;;;;5075538;28;20040;-65
2023/09/27 06:52:48;;;;;;;6.82;4.60;;;14.90;99.90;;;;;;5076935;28;20032;-65
2023/09/27 06:55:16;;;;;;;7.18;4.35;;;15.20;99.90;;;;;;5073634;28;20062;-64
2023/09/27 06:57:47;;;;;;;12.20;4.68;;;15.50;99.90;;;;;;5075668;28;20387;-65
2023/09/27 07:00:23;;;;;;;7.63;4.20;;;15.60;99.90;;;;;;5073808;28;20028;-65
2023/09/27 07:02:49;;;;;;;6.05;3.85;;;15.80;99.90;;;;;;5074907;28;20042;-64
2023/09/27 07:05:16;;;;;;;5.28;3.60;;;15.80;99.90;;;;;;5076392;28;20028;-64
2023/09/27 07:07:42;;;;;;;5.57;3.85;;;15.90;99.90;;;;;;5079463;27;20036;-65
2023/09/27 07:10:09;;;;;;;6.65;4.18;;;15.80;99.90;;;;;;5076590;28;20031;-64
2023/09/27 07:12:36;;;;;;;7.20;4.22;;;15.70;99.90;;;;;;5068683;28;20044;-64
2023/09/27 07:15:14;;;;;;;7.28;4.38;;;15.80;99.90;;;;;;5077748;28;20122;-65
2023/09/27 07:17:41;;;;;;;7.47;4.05;;;15.90;99.90;;;;;;5075004;28;20024;-65
2023/09/27 07:22:40;;;;;;;4.93;3.95;;;16.00;99.90;;;;;;5075579;28;20036;-64
2023/09/27 07:25:09;;;;;;;7.85;4.32;;;16.00;99.90;;;;;;5077609;28;20053;-64
2023/09/27 07:27:35;;;;;;;6.68;4.10;;;16.10;99.90;;;;;;5061705;28;20085;-61
2023/09/27 07:30:02;;;;;;;6.95;4.20;;;16.10;99.90;;;;;;5076729;28;20481;-66
2023/09/27 07:32:30;;;;;;;7.40;4.22;;;16.10;99.90;;;;;;5076189;28;20056;-65
2023/09/27 07:34:58;;;;;;;8.85;4.32;;;16.00;99.90;;;;;;5074865;28;20033;-64
2023/09/27 07:37:24;;;;;;;7.05;4.85;;;16.00;99.90;;;;;;5072874;28;20048;-65
2023/09/27 07:39:50;;;;;;;6.25;4.55;;;15.90;99.90;;;;;;5077638;28;20032;-64
2023/09/27 07:42:15;;;;;;;6.45;3.85;;;16.10;99.90;;;;;;5071940;28;20101;-66
2023/09/27 07:44:42;;;;;;;15.23;4.45;;;16.20;99.90;;;;;;5076330;28;20447;-65
2023/09/27 07:47:08;;;;;;;7.80;4.32;;;16.10;99.90;;;;;;5070897;28;20020;-61
2023/09/27 07:49:34;;;;;;;7.93;4.55;;;16.10;99.90;;;;;;5076295;28;20397;-65
2023/09/27 07:51:59;;;;;;;5.93;4.53;;;16.10;99.90;;;;;;5073807;28;20021;-66
2023/09/27 07:54:25;;;;;;;6.05;3.97;;;16.20;99.90;;;;;;5074754;28;20520;-65
2023/09/27 07:56:50;;;;;;;6.00;4.85;;;16.40;99.90;;;;;;5074417;28;20111;-65
2023/09/27 07:59:16;;;;;;;6.80;4.07;;;16.50;99.90;;;;;;5056845;28;20035;-65
2023/09/27 08:01:42;;;;;;;10.90;5.45;;;16.70;99.90;;;;;;5072447;28;20054;-65
2023/09/27 08:04:12;;;;;;;7.70;5.00;;;16.80;99.90;;;;;;5072655;28;20035;-65
2023/09/27 08:06:38;;;;;;;6.10;3.85;;;17.00;99.90;;;;;;5074882;28;20043;-63
2023/09/27 08:09:06;;;;;;;6.63;4.18;;;17.10;99.90;;;;;;5075868;28;20067;-65
2023/09/27 08:11:31;;;;;;;7.15;4.45;;;17.20;99.90;;;;;;5076402;28;20036;-66
2023/09/27 08:13:57;;;;;;;6.18;4.13;;;17.10;99.90;;;;;;5072370;28;20051;-64
2023/09/27 08:16:23;;;;;;;6.50;3.78;;;17.10;99.90;;;;;;5076685;28;20040;-65
2023/09/27 08:18:49;;;;;;;6.82;4.10;;;17.20;99.90;;;;;;5075626;28;20046;-67
2023/09/27 08:21:14;;;;;;;9.18;4.18;;;17.10;99.90;;;;;;5074334;28;20036;-63
2023/09/27 08:23:41;;;;;;;8.13;3.88;;;17.20;99.90;;;;;;5075413;28;20024;-63
2023/09/27 08:26:10;;;;;;;7.25;4.03;;;17.30;99.90;;;;;;5076802;28;20020;-65
2023/09/27 08:28:36;;;;;;;10.43;4.13;;;17.40;99.90;;;;;;5076211;28;20021;-65
2023/09/27 08:31:04;;;;;;;9.65;4.85;;;17.20;99.90;;;;;;5074851;28;20094;-65
2023/09/27 08:33:30;;;;;;;3.80;3.28;;;17.20;99.90;;;;;;5059061;28;20400;-65
2023/09/27 08:35:56;;;;;;;7.78;3.53;;;17.20;99.90;;;;;;5074870;28;20036;-64
2023/09/27 08:38:21;;;;;;;6.50;3.97;;;17.20;99.90;;;;;;5075843;28;20081;-66
2023/09/27 08:40:48;;;;;;;5.97;3.70;;;17.20;99.90;;;;;;5077221;28;20024;-65
2023/09/27 08:43:17;;;;;;;7.32;3.58;;;17.30;99.90;;;;;;5075356;28;20035;-64
2023/09/27 08:45:45;;;;;;;5.82;3.97;;;17.40;99.90;;;;;;5076974;28;20073;-66
2023/09/27 08:48:16;;;;;;;6.00;3.88;;;17.70;99.90;;;;;;5074258;28;20025;-66
2023/09/27 08:50:42;;;;;;;5.00;4.07;;;17.80;99.90;;;;;;5080257;28;20021;-67
2023/09/27 08:53:08;;;;;;;4.63;3.35;;;17.90;99.90;;;;;;5077927;28;20051;-66
2023/09/27 08:55:37;;;;;;;4.38;3.03;;;18.10;99.90;;;;;;5076889;28;20123;-65
2023/09/27 08:58:03;;;;;;;4.43;3.30;;;18.70;99.90;;;;;;5078061;28;20040;-65
2023/09/27 09:00:32;;;;;;;5.47;3.70;;;19.10;99.90;;;;;;5078806;28;20090;-64
2023/09/27 09:03:00;;;;;;;3.78;2.97;;;19.40;99.90;;;;;;5077742;28;20067;-66
2023/09/27 09:05:29;;;;;;;7.20;3.10;;;19.80;99.90;;;;;;5074309;28;20031;-66
2023/09/27 09:07:56;;;;;;;7.80;2.90;;;20.60;99.90;;;;;;5078888;27;20043;-67
2023/09/27 09:10:25;;;;;;;4.20;2.70;;;21.60;99.90;;;;;;5079390;28;20059;-67
2023/09/27 09:12:54;;;;;;;5.30;2.38;;;22.00;99.90;;;;;;5077142;28;20036;-65
2023/09/27 09:15:34;;;;;;;5.05;2.25;;;22.60;99.90;;;;;;5077789;28;20059;-69
2023/09/27 09:18:02;;;;;;;5.28;2.25;;;22.70;99.90;;;;;;5081196;28;20074;-66
2023/09/27 09:20:48;;;;;;;5.28;1.90;;;23.10;99.90;;;;;;5075308;28;20044;-65
2023/09/27 09:23:31;;;;;;;6.13;2.55;;;23.20;99.90;;;;;;5059682;28;20021;-67
2023/09/27 09:25:57;;;;;;;5.38;2.25;;;23.90;99.90;;;;;;5079928;28;20082;-67
2023/09/27 09:28:24;;;;;;;5.40;2.50;;;23.90;99.90;;;;;;5075864;28;20024;-67
2023/09/27 09:30:50;;;;;;;5.25;2.53;;;24.10;99.90;;;;;;5077088;28;20029;-66
2023/09/27 09:33:17;;;;;;;2.75;2.15;;;24.10;99.90;;;;;;5077134;28;20517;-65
2023/09/27 09:35:43;;;;;;;4.05;2.00;;;24.00;99.90;;;;;;5080078;28;20027;-66
2023/09/27 09:38:08;;;;;;;3.10;1.67;;;24.20;99.60;;;;;;5076813;28;20038;-64
2023/09/27 09:40:54;;;;;;;5.18;2.30;;;24.50;99.70;;;;;;5078001;28;20063;-68
2023/09/27 09:43:36;;;;;;;3.92;1.92;;;24.70;98.30;;;;;;5075653;28;20438;-65
2023/09/27 09:46:06;;;;;;;3.50;1.85;;;24.60;98.30;;;;;;5078681;28;20017;-66
2023/09/27 09:48:36;;;;;;;2.60;2.05;;;24.60;98.50;;;;;;5077731;28;21278;-64
2023/09/27 09:51:06;;;;;;;2.78;1.92;;;24.70;98.10;;;;;;5059167;28;20479;-66
2023/09/27 09:53:40;;;;;;;3.00;1.70;;;24.50;98.30;;;;;;5075123;28;20032;-65
2023/09/27 09:56:07;;;;;;;2.38;1.80;;;24.50;99.20;;;;;;5077930;28;20524;-64
2023/09/27 09:58:37;;;;;;;3.67;1.90;;;24.50;99.40;;;;;;5079572;28;20044;-67
2023/09/27 10:01:03;;;;;;;4.00;2.13;;;24.30;99.40;;;;;;5079619;28;20032;-65
2023/09/27 10:03:33;;;;;;;9.45;2.38;;;24.50;99.20;;;;;;5077698;28;20032;-65
2023/09/27 10:06:01;;;;;;;4.78;2.05;;;24.50;98.20;;;;;;5077064;28;20024;-66
2023/09/27 10:08:34;;;;;;;2.83;1.98;;;24.20;97.90;;;;;;5074850;28;20044;-65
2023/09/27 10:11:03;;;;;;;6.32;2.10;;;24.20;98.40;;;;;;5076777;28;20041;-68
2023/09/27 10:13:35;;;;;;;5.28;2.38;;;24.00;98.60;;;;;;5077286;28;20024;-64
2023/09/27 10:16:03;;;;;;;2.53;1.85;;;24.10;99.60;;;;;;5075239;28;20040;-65
2023/09/27 10:18:30;;;;;;;3.90;2.03;;;23.90;98.60;;;;;;5077574;28;20576;-64
2023/09/27 10:21:07;;;;;;;7.18;2.15;;;23.60;99.90;;;;;;5073423;28;20032;-67
2023/09/27 10:23:57;;;;;;;3.78;2.35;;;23.50;99.50;;;;;;5076054;28;20529;-67
2023/09/27 10:26:29;;;;;;;4.15;2.20;;;23.30;99.50;;;;;;5077365;28;20118;-64
2023/09/27 10:29:03;;;;;;;3.88;2.03;;;23.20;99.90;;;;;;5074348;28;20032;-65
2023/09/27 10:31:48;;;;;;;2.75;1.85;;;23.10;99.90;;;;;;5071324;28;20043;-64
2023/09/27 10:34:26;;;;;;;3.25;2.00;;;23.10;99.90;;;;;;5075751;28;20028;-64
2023/09/27 10:36:53;;;;;;;6.60;1.92;;;22.90;99.90;;;;;;5072901;28;20399;-65
2023/09/27 10:39:19;;;;;;;5.00;2.10;;;22.60;99.90;;;;;;5075024;28;20053;-67
2023/09/27 10:41:49;;;;;;;3.22;1.85;;;22.60;99.90;;;;;;5075216;28;20056;-65
2023/09/27 10:44:28;;;;;;;6.07;2.05;;;22.80;99.90;;;;;;5076389;28;20035;-66
2023/09/27 10:46:54;;;;;;;5.05;1.95;;;23.00;99.90;;;;;;5071789;28;21124;-63
2023/09/27 10:49:29;;;;;;;5.68;1.75;;;23.10;99.90;;;;;;5074775;28;20031;-66
2023/09/27 10:51:55;;;;;;;5.68;1.90;;;23.10;99.90;;;;;;5074221;28;20032;-65
2023/09/27 10:54:23;;;;;;;4.53;2.10;;;23.30;99.90;;;;;;5076143;28;20044;-65
2023/09/27 10:56:53;;;;;;;3.65;2.00;;;23.40;99.90;;;;;;5076744;28;20039;-64
2023/09/27 10:59:28;;;;;;;2.92;1.60;;;23.40;99.30;;;;;;5075099;28;20016;-65
2023/09/27 11:01:55;;;;;;;5.28;1.60;;;23.30;99.40;;;;;;5074904;28;20039;-65
2023/09/27 11:04:25;;;;;;;2.42;1.55;;;23.40;98.60;;;;;;5076947;28;20024;-65
2023/09/27 11:06:51;;;;;;;4.93;1.83;;;23.40;99.20;;;;;;5073235;28;20080;-65
2023/09/27 11:09:19;;;;;;;4.57;1.55;;;23.50;99.20;;;;;;5055340;28;20040;-65
2023/09/27 11:11:46;;;;;;;3.78;1.90;;;23.50;99.90;;;;;;5074118;28;20036;-65
2023/09/27 11:14:12;;;;;;;2.92;1.45;;;23.50;98.80;;;;;;5071763;28;20122;-66
2023/09/27 11:16:38;;;;;;;4.65;1.60;;;23.40;99.50;;;;;;5074412;28;20901;-66
2023/09/27 11:19:04;;;;;;;2.47;1.65;;;23.30;98.70;;;;;;5075276;28;20036;-64
2023/09/27 11:21:31;;;;;;;3.35;1.75;;;23.40;99.80;;;;;;5074350;28;20017;-64
2023/09/27 11:24:03;;;;;;;2.13;1.58;;;23.40;99.90;;;;;;5073355;28;20059;-65
2023/09/27 11:26:31;;;;;;;3.95;1.90;;;23.50;99.90;;;;;;5076876;28;20050;-65
2023/09/27 11:29:02;;;;;;;4.63;1.88;;;23.40;99.80;;;;;;5073419;28;20034;-65
2023/09/27 11:31:30;;;;;;;3.72;1.35;;;23.50;99.70;;;;;;5075888;28;20031;-66
2023/09/27 11:34:13;;;;;;;3.35;1.42;;;23.50;99.40;;;;;;5076589;28;20030;-66
2023/09/27 11:36:46;;;;;;;3.80;1.80;;;23.60;99.40;;;;;;5075150;28;20033;-65
2023/09/27 11:39:13;;;;;;;1.67;1.50;;;23.70;98.30;;;;;;5057599;28;20109;-66
2023/09/27 11:41:39;;;;;;;3.97;1.60;;;23.60;98.20;;;;;;5073515;28;20028;-61
2023/09/27 11:44:23;;;;;;;3.92;2.05;;;23.60;98.90;;;;;;5078197;28;20051;-65
2023/09/27 11:46:49;;;;;;;2.45;1.30;;;23.60;99.20;;;;;;5075822;28;20024;-65
2023/09/27 11:49:16;;;;;;;2.30;1.40;;;23.60;98.80;;;;;;5077579;28;20587;-65
2023/09/27 11:51:43;;;;;;;5.15;1.63;;;23.70;98.70;;;;;;5073699;28;20044;-65
2023/09/27 11:54:09;;;;;;;2.00;1.67;;;23.60;98.70;;;;;;5074400;28;20550;-65
2023/09/27 11:56:38;;;;;;;3.10;1.65;;;23.60;98.10;;;;;;5071603;28;20141;-66
2023/09/27 11:59:04;;;;;;;2.85;1.63;;;23.60;98.50;;;;;;5074498;28;20036;-64
2023/09/27 12:01:31;;;;;;;2.78;1.80;;;23.70;98.40;;;;;;5074531;28;20050;-64
2023/09/27 12:03:57;;;;;;;2.30;1.55;;;23.70;98.00;;;;;;5075353;28;20826;-65
2023/09/27 12:06:24;;;;;;;2.92;1.60;;;23.80;98.40;;;;;;5076751;28;20066;-64
2023/09/27 12:08:50;;;;;;;2.85;1.50;;;23.80;99.00;;;;;;5077736;28;20425;-66
2023/09/27 12:11:16;;;;;;;4.03;1.77;;;23.90;99.40;;;;;;5072494;28;20036;-65
2023/09/27 12:13:41;;;;;;;4.30;1.85;;;23.90;99.00;;;;;;5075245;28;20112;-66
2023/09/27 12:16:07;;;;;;;2.65;1.17;;;24.00;99.30;;;;;;5072551;28;20032;-65
2023/09/27 12:18:32;;;;;;;2.53;1.50;;;24.10;99.70;;;;;;5075108;28;20137;-67
2023/09/27 12:20:59;;;;;;;2.47;1.70;;;24.20;98.30;;;;;;5076899;28;20032;-65
2023/09/27 12:23:24;;;;;;;5.30;2.00;;;24.20;97.80;;;;;;5075356;28;20025;-65
2023/09/27 12:25:50;;;;;;;6.72;1.55;;;24.20;97.80;;;;;;5076984;28;20081;-66
2023/09/27 12:28:16;;;;;;;2.40;1.73;;;24.30;98.00;;;;;;5079864;28;20028;-65
2023/09/27 12:30:42;;;;;;;4.68;1.60;;;24.30;98.00;;;;;;5081125;28;20035;-64
2023/09/27 12:33:08;;;;;;;2.50;1.63;;;24.40;98.70;;;;;;5081940;28;20035;-67
2023/09/27 12:35:33;;;;;;;1.60;1.40;;;24.50;97.50;;;;;;5082977;28;20039;-65
2023/09/27 12:38:03;;;;;;;3.67;1.85;;;24.60;97.50;;;;;;5079292;28;20038;-64
2023/09/27 12:40:32;;;;;;;2.10;1.45;;;24.70;97.80;;;;;;5077152;28;20072;-65
2023/09/27 12:42:58;;;;;;;5.07;1.42;;;24.80;97.90;;;;;;5081280;28;20032;-66
2023/09/27 12:45:23;;;;;;;7.68;1.52;;;24.80;97.80;;;;;;5081005;28;20031;-66